CheckWX is a tool to help pilots better visualize weather data.  It is not intended as a substitute for an official pre-flight weather briefing.

14:36:31 UTC

KSAW TAF
Sawyer International Airport
Marquette, Michigan, USA
KSAW 261139Z 2612/2712 33009KT 4SM -SHSN OVC013 FM262000 34011KT 6SM BR VCSH OVC010 FM270200 35008KT P6SM -FZDZSN OVC008

Jan-26@
12:00 UTC

Jan-26 @ 12:00 UTC

Jan-26@
20:00 UTC

Jan-26 @ 20:00 UTC

KSAW 261139Z 2612/2712 33009KT 4SM -SHSN OVC013
Wind
  • 330° at 9 KTS
Conditions
Light Snow
Cloud Levels
  • Overcast at 1,300' AGL

Jan-26@
20:00 UTC

Jan-26 @ 20:00 UTC

Jan-27@
02:00 UTC

Jan-27 @ 02:00 UTC

FM262000 34011KT 6SM BR VCSH OVC010

From

From Standard forecast or significant change

Wind
  • 340° at 11 KTS
Conditions
Mist
Cloud Levels
  • Overcast at 1,000' AGL

Jan-27@
02:00 UTC

Jan-27 @ 02:00 UTC

Jan-27@
12:00 UTC

Jan-27 @ 12:00 UTC

FM270200 35008KT P6SM -FZDZSN OVC008

From

From Standard forecast or significant change

Wind
  • 350° at 8 KTS
Conditions
Light Freezing Light Drizzle, Snow
Cloud Levels
  • Overcast at 800' AGL